sensor_id;sensor_type;location;lat;lon;timestamp;P1;durP1;ratioP1;P2;durP2;ratioP2
75774;SDS011;64505;51.458;7.556;2023-08-07T00:01:13;3.80;;;2.28;;
75774;SDS011;64505;51.458;7.556;2023-08-07T00:03:14;4.88;;;2.00;;
75774;SDS011;64505;51.458;7.556;2023-08-07T00:05:19;3.67;;;1.90;;
75774;SDS011;64505;51.458;7.556;2023-08-07T00:07:21;3.10;;;1.60;;
75774;SDS011;64505;51.458;7.556;2023-08-07T00:09:22;3.08;;;1.60;;
75774;SDS011;64505;51.458;7.556;2023-08-07T00:11:24;3.70;;;1.52;;
75774;SDS011;64505;51.458;7.556;2023-08-07T00:13:25;2.78;;;1.40;;
75774;SDS011;64505;51.458;7.556;2023-08-07T00:15:27;3.63;;;1.40;;
75774;SDS011;64505;51.458;7.556;2023-08-07T00:17:28;2.47;;;1.35;;
75774;SDS011;64505;51.458;7.556;2023-08-07T00:19:30;1.92;;;1.15;;
75774;SDS011;64505;51.458;7.556;2023-08-07T00:21:31;2.20;;;1.20;;
75774;SDS011;64505;51.458;7.556;2023-08-07T00:23:33;1.98;;;1.00;;
75774;SDS011;64505;51.458;7.556;2023-08-07T00:25:35;2.45;;;1.17;;
75774;SDS011;64505;51.458;7.556;2023-08-07T00:27:36;2.58;;;1.17;;
75774;SDS011;64505;51.458;7.556;2023-08-07T00:29:38;1.48;;;0.90;;
75774;SDS011;64505;51.458;7.556;2023-08-07T00:31:40;2.28;;;1.08;;
75774;SDS011;64505;51.458;7.556;2023-08-07T00:33:41;1.88;;;0.90;;
75774;SDS011;64505;51.458;7.556;2023-08-07T00:35:43;2.35;;;1.10;;
75774;SDS011;64505;51.458;7.556;2023-08-07T00:37:45;1.83;;;0.90;;
75774;SDS011;64505;51.458;7.556;2023-08-07T00:39:46;1.63;;;1.27;;
75774;SDS011;64505;51.458;7.556;2023-08-07T00:41:48;2.92;;;1.00;;
75774;SDS011;64505;51.458;7.556;2023-08-07T00:43:49;2.63;;;0.90;;
75774;SDS011;64505;51.458;7.556;2023-08-07T00:45:51;1.77;;;1.10;;
75774;SDS011;64505;51.458;7.556;2023-08-07T00:47:52;1.52;;;0.95;;
75774;SDS011;64505;51.458;7.556;2023-08-07T00:49:54;1.08;;;0.70;;
75774;SDS011;64505;51.458;7.556;2023-08-07T00:51:58;1.90;;;0.80;;
75774;SDS011;64505;51.458;7.556;2023-08-07T00:53:59;1.48;;;0.70;;
75774;SDS011;64505;51.458;7.556;2023-08-07T00:56:03;1.55;;;0.90;;
75774;SDS011;64505;51.458;7.556;2023-08-07T00:58:05;2.67;;;1.00;;
75774;SDS011;64505;51.458;7.556;2023-08-07T01:00:07;1.75;;;0.95;;
75774;SDS011;64505;51.458;7.556;2023-08-07T01:02:09;2.58;;;1.00;;
75774;SDS011;64505;51.458;7.556;2023-08-07T01:04:13;1.73;;;0.90;;
75774;SDS011;64505;51.458;7.556;2023-08-07T01:06:15;1.85;;;1.00;;
75774;SDS011;64505;51.458;7.556;2023-08-07T01:08:16;2.08;;;1.00;;
75774;SDS011;64505;51.458;7.556;2023-08-07T01:10:18;2.10;;;0.93;;
75774;SDS011;64505;51.458;7.556;2023-08-07T01:12:20;2.40;;;1.08;;
75774;SDS011;64505;51.458;7.556;2023-08-07T01:14:37;2.47;;;1.27;;
75774;SDS011;64505;51.458;7.556;2023-08-07T01:16:48;3.08;;;1.02;;
75774;SDS011;64505;51.458;7.556;2023-08-07T01:18:53;2.15;;;1.02;;
75774;SDS011;64505;51.458;7.556;2023-08-07T01:20:57;4.00;;;1.20;;
75774;SDS011;64505;51.458;7.556;2023-08-07T01:22:58;2.03;;;0.95;;
75774;SDS011;64505;51.458;7.556;2023-08-07T01:25:00;1.90;;;0.90;;
75774;SDS011;64505;51.458;7.556;2023-08-07T01:27:46;4.13;;;1.40;;
75774;SDS011;64505;51.458;7.556;2023-08-07T01:29:35;4.70;;;1.48;;
75774;SDS011;64505;51.458;7.556;2023-08-07T01:31:45;2.58;;;1.10;;
75774;SDS011;64505;51.458;7.556;2023-08-07T01:33:55;2.47;;;1.23;;
75774;SDS011;64505;51.458;7.556;2023-08-07T01:36:01;4.28;;;1.48;;
75774;SDS011;64505;51.458;7.556;2023-08-07T01:38:07;4.18;;;1.27;;
75774;SDS011;64505;51.458;7.556;2023-08-07T01:40:09;5.15;;;1.50;;
75774;SDS011;64505;51.458;7.556;2023-08-07T01:42:13;4.88;;;1.40;;
75774;SDS011;64505;51.458;7.556;2023-08-07T01:44:15;3.28;;;1.30;;
75774;SDS011;64505;51.458;7.556;2023-08-07T01:46:17;3.03;;;1.23;;
75774;SDS011;64505;51.458;7.556;2023-08-07T01:48:19;2.90;;;1.23;;
75774;SDS011;64505;51.458;7.556;2023-08-07T01:50:21;4.22;;;1.40;;
75774;SDS011;64505;51.458;7.556;2023-08-07T01:52:24;1.63;;;1.17;;
75774;SDS011;64505;51.458;7.556;2023-08-07T01:54:25;2.83;;;1.40;;
75774;SDS011;64505;51.458;7.556;2023-08-07T01:56:27;3.85;;;1.48;;
75774;SDS011;64505;51.458;7.556;2023-08-07T01:58:28;3.78;;;1.30;;
75774;SDS011;64505;51.458;7.556;2023-08-07T02:00:30;2.95;;;1.50;;
75774;SDS011;64505;51.458;7.556;2023-08-07T02:02:32;4.05;;;1.70;;
75774;SDS011;64505;51.458;7.556;2023-08-07T02:04:34;2.78;;;1.40;;
75774;SDS011;64505;51.458;7.556;2023-08-07T02:06:35;4.93;;;1.70;;
75774;SDS011;64505;51.458;7.556;2023-08-07T02:08:37;2.88;;;1.63;;
75774;SDS011;64505;51.458;7.556;2023-08-07T02:10:38;3.95;;;1.70;;
75774;SDS011;64505;51.458;7.556;2023-08-07T02:12:40;3.03;;;1.33;;
75774;SDS011;64505;51.458;7.556;2023-08-07T02:14:41;2.85;;;1.50;;
75774;SDS011;64505;51.458;7.556;2023-08-07T02:16:43;5.57;;;1.80;;
75774;SDS011;64505;51.458;7.556;2023-08-07T02:18:44;4.40;;;1.88;;
75774;SDS011;64505;51.458;7.556;2023-08-07T02:20:46;4.90;;;2.50;;
75774;SDS011;64505;51.458;7.556;2023-08-07T02:22:47;4.30;;;2.55;;
75774;SDS011;64505;51.458;7.556;2023-08-07T02:24:49;5.60;;;2.97;;
75774;SDS011;64505;51.458;7.556;2023-08-07T02:26:50;4.88;;;2.63;;
75774;SDS011;64505;51.458;7.556;2023-08-07T02:28:52;4.88;;;2.85;;
75774;SDS011;64505;51.458;7.556;2023-08-07T02:30:53;5.13;;;2.80;;
75774;SDS011;64505;51.458;7.556;2023-08-07T02:32:55;6.15;;;2.50;;
75774;SDS011;64505;51.458;7.556;2023-08-07T02:34:57;3.65;;;2.28;;
75774;SDS011;64505;51.458;7.556;2023-08-07T02:36:58;5.70;;;2.40;;
75774;SDS011;64505;51.458;7.556;2023-08-07T02:39:00;5.03;;;2.20;;
75774;SDS011;64505;51.458;7.556;2023-08-07T02:41:02;3.97;;;2.38;;
75774;SDS011;64505;51.458;7.556;2023-08-07T02:43:03;3.75;;;2.10;;
75774;SDS011;64505;51.458;7.556;2023-08-07T02:45:05;3.78;;;2.17;;
75774;SDS011;64505;51.458;7.556;2023-08-07T02:47:07;5.82;;;2.50;;
75774;SDS011;64505;51.458;7.556;2023-08-07T02:49:08;4.63;;;2.38;;
75774;SDS011;64505;51.458;7.556;2023-08-07T02:51:10;4.78;;;2.03;;
75774;SDS011;64505;51.458;7.556;2023-08-07T02:53:11;3.22;;;2.10;;
75774;SDS011;64505;51.458;7.556;2023-08-07T02:55:13;5.15;;;2.05;;
75774;SDS011;64505;51.458;7.556;2023-08-07T02:57:14;5.05;;;2.03;;
75774;SDS011;64505;51.458;7.556;2023-08-07T02:59:16;4.15;;;1.60;;
75774;SDS011;64505;51.458;7.556;2023-08-07T03:01:17;3.83;;;2.00;;
75774;SDS011;64505;51.458;7.556;2023-08-07T03:03:19;3.75;;;2.13;;
75774;SDS011;64505;51.458;7.556;2023-08-07T03:05:20;3.58;;;2.20;;
75774;SDS011;64505;51.458;7.556;2023-08-07T03:07:22;3.92;;;1.98;;
75774;SDS011;64505;51.458;7.556;2023-08-07T03:09:23;3.28;;;1.70;;
75774;SDS011;64505;51.458;7.556;2023-08-07T03:11:25;2.53;;;1.70;;
75774;SDS011;64505;51.458;7.556;2023-08-07T03:13:26;3.15;;;1.67;;
75774;SDS011;64505;51.458;7.556;2023-08-07T03:15:28;3.35;;;1.63;;
75774;SDS011;64505;51.458;7.556;2023-08-07T03:17:29;3.17;;;1.60;;
75774;SDS011;64505;51.458;7.556;2023-08-07T03:19:31;3.30;;;1.83;;
75774;SDS011;64505;51.458;7.556;2023-08-07T03:21:32;3.50;;;1.80;;
75774;SDS011;64505;51.458;7.556;2023-08-07T03:23:34;5.57;;;1.95;;
75774;SDS011;64505;51.458;7.556;2023-08-07T03:25:35;4.60;;;1.70;;
75774;SDS011;64505;51.458;7.556;2023-08-07T03:27:37;3.35;;;1.50;;
75774;SDS011;64505;51.458;7.556;2023-08-07T03:29:39;5.43;;;1.83;;
75774;SDS011;64505;51.458;7.556;2023-08-07T03:31:40;4.70;;;1.50;;
75774;SDS011;64505;51.458;7.556;2023-08-07T03:33:42;4.97;;;1.65;;
75774;SDS011;64505;51.458;7.556;2023-08-07T03:35:44;2.42;;;1.15;;
75774;SDS011;64505;51.458;7.556;2023-08-07T03:37:46;4.22;;;1.48;;
75774;SDS011;64505;51.458;7.556;2023-08-07T03:39:48;2.75;;;1.20;;
75774;SDS011;64505;51.458;7.556;2023-08-07T03:41:49;3.50;;;1.50;;
75774;SDS011;64505;51.458;7.556;2023-08-07T03:43:51;4.80;;;1.15;;
75774;SDS011;64505;51.458;7.556;2023-08-07T03:45:55;2.42;;;1.10;;
75774;SDS011;64505;51.458;7.556;2023-08-07T03:48:02;2.42;;;0.98;;
75774;SDS011;64505;51.458;7.556;2023-08-07T03:50:04;2.60;;;0.98;;
75774;SDS011;64505;51.458;7.556;2023-08-07T03:52:06;2.22;;;0.90;;
75774;SDS011;64505;51.458;7.556;2023-08-07T03:54:08;3.28;;;0.85;;
75774;SDS011;64505;51.458;7.556;2023-08-07T03:56:09;2.25;;;0.90;;
75774;SDS011;64505;51.458;7.556;2023-08-07T03:58:11;2.92;;;0.98;;
75774;SDS011;64505;51.458;7.556;2023-08-07T04:00:13;3.13;;;0.90;;
75774;SDS011;64505;51.458;7.556;2023-08-07T04:02:14;2.22;;;0.90;;
75774;SDS011;64505;51.458;7.556;2023-08-07T04:04:17;2.58;;;0.73;;
75774;SDS011;64505;51.458;7.556;2023-08-07T04:06:18;1.70;;;0.80;;
75774;SDS011;64505;51.458;7.556;2023-08-07T04:08:22;3.70;;;0.95;;
75774;SDS011;64505;51.458;7.556;2023-08-07T04:10:24;2.95;;;0.90;;
75774;SDS011;64505;51.458;7.556;2023-08-07T04:12:25;2.75;;;1.13;;
75774;SDS011;64505;51.458;7.556;2023-08-07T04:14:27;4.57;;;1.20;;
75774;SDS011;64505;51.458;7.556;2023-08-07T04:16:29;2.90;;;1.00;;
75774;SDS011;64505;51.458;7.556;2023-08-07T04:18:32;3.72;;;1.08;;
75774;SDS011;64505;51.458;7.556;2023-08-07T04:20:34;3.53;;;1.40;;
75774;SDS011;64505;51.458;7.556;2023-08-07T04:22:36;2.22;;;1.30;;
75774;SDS011;64505;51.458;7.556;2023-08-07T04:24:37;3.25;;;1.20;;
75774;SDS011;64505;51.458;7.556;2023-08-07T04:26:39;5.18;;;1.70;;
75774;SDS011;64505;51.458;7.556;2023-08-07T04:28:40;4.65;;;1.88;;
75774;SDS011;64505;51.458;7.556;2023-08-07T04:30:42;4.35;;;2.05;;
75774;SDS011;64505;51.458;7.556;2023-08-07T04:32:45;5.53;;;2.45;;
75774;SDS011;64505;51.458;7.556;2023-08-07T04:34:46;7.05;;;2.47;;
75774;SDS011;64505;51.458;7.556;2023-08-07T04:36:48;8.88;;;2.90;;
75774;SDS011;64505;51.458;7.556;2023-08-07T04:38:51;7.30;;;2.70;;
75774;SDS011;64505;51.458;7.556;2023-08-07T04:40:53;8.88;;;2.95;;
75774;SDS011;64505;51.458;7.556;2023-08-07T04:42:56;6.25;;;2.83;;
75774;SDS011;64505;51.458;7.556;2023-08-07T04:44:57;7.43;;;3.10;;
75774;SDS011;64505;51.458;7.556;2023-08-07T04:46:59;7.03;;;3.10;;
75774;SDS011;64505;51.458;7.556;2023-08-07T04:49:00;6.35;;;3.22;;
75774;SDS011;64505;51.458;7.556;2023-08-07T04:51:02;8.75;;;3.45;;
75774;SDS011;64505;51.458;7.556;2023-08-07T04:53:04;7.30;;;3.78;;
75774;SDS011;64505;51.458;7.556;2023-08-07T04:55:06;6.63;;;3.40;;
75774;SDS011;64505;51.458;7.556;2023-08-07T04:57:08;9.57;;;3.78;;
75774;SDS011;64505;51.458;7.556;2023-08-07T04:59:09;8.73;;;3.95;;
75774;SDS011;64505;51.458;7.556;2023-08-07T05:01:11;10.63;;;4.60;;
75774;SDS011;64505;51.458;7.556;2023-08-07T05:03:13;13.10;;;5.25;;
75774;SDS011;64505;51.458;7.556;2023-08-07T05:05:16;10.50;;;4.90;;
75774;SDS011;64505;51.458;7.556;2023-08-07T05:07:20;13.35;;;5.20;;
75774;SDS011;64505;51.458;7.556;2023-08-07T05:09:21;12.10;;;5.63;;
75774;SDS011;64505;51.458;7.556;2023-08-07T05:11:23;14.52;;;6.40;;
75774;SDS011;64505;51.458;7.556;2023-08-07T05:13:25;9.43;;;5.32;;
75774;SDS011;64505;51.458;7.556;2023-08-07T05:15:26;9.20;;;5.38;;
75774;SDS011;64505;51.458;7.556;2023-08-07T05:17:29;10.23;;;5.53;;
75774;SDS011;64505;51.458;7.556;2023-08-07T05:19:31;10.90;;;5.05;;
75774;SDS011;64505;51.458;7.556;2023-08-07T05:21:32;10.70;;;5.22;;
75774;SDS011;64505;51.458;7.556;2023-08-07T05:23:34;9.93;;;5.22;;
75774;SDS011;64505;51.458;7.556;2023-08-07T05:25:35;8.43;;;5.22;;
75774;SDS011;64505;51.458;7.556;2023-08-07T05:27:37;11.13;;;5.28;;
75774;SDS011;64505;51.458;7.556;2023-08-07T05:29:38;12.75;;;5.93;;
75774;SDS011;64505;51.458;7.556;2023-08-07T05:31:45;10.48;;;5.07;;
75774;SDS011;64505;51.458;7.556;2023-08-07T05:33:47;12.02;;;5.45;;
75774;SDS011;64505;51.458;7.556;2023-08-07T05:35:48;9.13;;;5.25;;
75774;SDS011;64505;51.458;7.556;2023-08-07T05:37:51;9.10;;;5.10;;
75774;SDS011;64505;51.458;7.556;2023-08-07T05:39:52;8.88;;;4.97;;
75774;SDS011;64505;51.458;7.556;2023-08-07T05:41:54;10.65;;;4.95;;
75774;SDS011;64505;51.458;7.556;2023-08-07T05:43:58;11.20;;;5.13;;
75774;SDS011;64505;51.458;7.556;2023-08-07T05:46:00;9.90;;;5.25;;
75774;SDS011;64505;51.458;7.556;2023-08-07T05:48:01;9.55;;;5.22;;
75774;SDS011;64505;51.458;7.556;2023-08-07T05:50:03;10.30;;;5.50;;
75774;SDS011;64505;51.458;7.556;2023-08-07T05:52:05;10.63;;;5.90;;
75774;SDS011;64505;51.458;7.556;2023-08-07T05:54:07;12.80;;;6.00;;
75774;SDS011;64505;51.458;7.556;2023-08-07T05:56:09;11.18;;;6.28;;
75774;SDS011;64505;51.458;7.556;2023-08-07T05:58:10;11.63;;;5.72;;
75774;SDS011;64505;51.458;7.556;2023-08-07T06:00:12;9.07;;;4.70;;
75774;SDS011;64505;51.458;7.556;2023-08-07T06:02:19;10.65;;;4.65;;
75774;SDS011;64505;51.458;7.556;2023-08-07T06:04:21;7.88;;;4.25;;
75774;SDS011;64505;51.458;7.556;2023-08-07T06:06:23;8.55;;;3.75;;
75774;SDS011;64505;51.458;7.556;2023-08-07T06:08:26;6.03;;;3.15;;
75774;SDS011;64505;51.458;7.556;2023-08-07T06:10:27;5.25;;;3.17;;
75774;SDS011;64505;51.458;7.556;2023-08-07T06:12:29;5.30;;;2.75;;
75774;SDS011;64505;51.458;7.556;2023-08-07T06:14:30;4.75;;;2.20;;
75774;SDS011;64505;51.458;7.556;2023-08-07T06:16:32;5.38;;;2.72;;
75774;SDS011;64505;51.458;7.556;2023-08-07T06:18:33;6.38;;;2.70;;
75774;SDS011;64505;51.458;7.556;2023-08-07T06:20:35;6.88;;;2.50;;
75774;SDS011;64505;51.458;7.556;2023-08-07T06:22:37;8.35;;;3.03;;
75774;SDS011;64505;51.458;7.556;2023-08-07T06:24:39;5.75;;;2.53;;
75774;SDS011;64505;51.458;7.556;2023-08-07T06:26:40;3.72;;;2.17;;
75774;SDS011;64505;51.458;7.556;2023-08-07T06:28:42;4.75;;;2.60;;
75774;SDS011;64505;51.458;7.556;2023-08-07T06:30:44;4.22;;;2.00;;
75774;SDS011;64505;51.458;7.556;2023-08-07T06:32:45;4.85;;;2.15;;
75774;SDS011;64505;51.458;7.556;2023-08-07T06:34:47;3.25;;;1.90;;
75774;SDS011;64505;51.458;7.556;2023-08-07T06:36:48;4.15;;;2.13;;
75774;SDS011;64505;51.458;7.556;2023-08-07T06:38:51;3.90;;;1.92;;
75774;SDS011;64505;51.458;7.556;2023-08-07T06:40:52;4.18;;;2.00;;
75774;SDS011;64505;51.458;7.556;2023-08-07T06:42:54;4.75;;;2.13;;
75774;SDS011;64505;51.458;7.556;2023-08-07T06:44:55;4.28;;;2.08;;
75774;SDS011;64505;51.458;7.556;2023-08-07T06:46:57;4.35;;;2.10;;
75774;SDS011;64505;51.458;7.556;2023-08-07T06:48:58;4.40;;;2.60;;
75774;SDS011;64505;51.458;7.556;2023-08-07T06:50:59;7.15;;;3.20;;
75774;SDS011;64505;51.458;7.556;2023-08-07T06:53:01;8.05;;;4.18;;
75774;SDS011;64505;51.458;7.556;2023-08-07T06:55:02;6.57;;;3.65;;
75774;SDS011;64505;51.458;7.556;2023-08-07T06:57:04;8.25;;;4.22;;
75774;SDS011;64505;51.458;7.556;2023-08-07T06:59:06;6.43;;;4.68;;
75774;SDS011;64505;51.458;7.556;2023-08-07T07:01:08;9.13;;;4.60;;
75774;SDS011;64505;51.458;7.556;2023-08-07T07:03:09;7.22;;;4.30;;
75774;SDS011;64505;51.458;7.556;2023-08-07T07:05:11;7.13;;;4.28;;
75774;SDS011;64505;51.458;7.556;2023-08-07T07:07:12;8.25;;;4.60;;
75774;SDS011;64505;51.458;7.556;2023-08-07T07:09:14;7.72;;;4.65;;
75774;SDS011;64505;51.458;7.556;2023-08-07T07:11:17;9.38;;;4.55;;
75774;SDS011;64505;51.458;7.556;2023-08-07T07:13:22;8.90;;;4.40;;
75774;SDS011;64505;51.458;7.556;2023-08-07T07:15:24;7.05;;;4.70;;
75774;SDS011;64505;51.458;7.556;2023-08-07T07:17:25;6.10;;;3.88;;
75774;SDS011;64505;51.458;7.556;2023-08-07T07:19:27;7.60;;;4.82;;
75774;SDS011;64505;51.458;7.556;2023-08-07T07:21:28;8.25;;;4.65;;
75774;SDS011;64505;51.458;7.556;2023-08-07T07:23:29;8.60;;;3.80;;
75774;SDS011;64505;51.458;7.556;2023-08-07T07:25:31;7.45;;;4.22;;
75774;SDS011;64505;51.458;7.556;2023-08-07T07:27:33;6.78;;;3.75;;
75774;SDS011;64505;51.458;7.556;2023-08-07T07:29:34;6.38;;;3.63;;
75774;SDS011;64505;51.458;7.556;2023-08-07T07:31:36;5.50;;;3.35;;
75774;SDS011;64505;51.458;7.556;2023-08-07T07:33:38;8.23;;;3.22;;
75774;SDS011;64505;51.458;7.556;2023-08-07T07:35:41;6.60;;;3.05;;
75774;SDS011;64505;51.458;7.556;2023-08-07T07:37:45;5.28;;;3.70;;
75774;SDS011;64505;51.458;7.556;2023-08-07T07:39:46;5.80;;;3.30;;
75774;SDS011;64505;51.458;7.556;2023-08-07T07:41:48;6.43;;;3.10;;
75774;SDS011;64505;51.458;7.556;2023-08-07T07:43:49;5.63;;;3.42;;
75774;SDS011;64505;51.458;7.556;2023-08-07T07:45:51;6.05;;;2.70;;
75774;SDS011;64505;51.458;7.556;2023-08-07T07:47:52;5.10;;;2.42;;
75774;SDS011;64505;51.458;7.556;2023-08-07T07:50:04;6.10;;;2.55;;
75774;SDS011;64505;51.458;7.556;2023-08-07T07:52:09;5.65;;;2.22;;
75774;SDS011;64505;51.458;7.556;2023-08-07T07:54:11;5.32;;;2.00;;
75774;SDS011;64505;51.458;7.556;2023-08-07T07:56:15;4.72;;;2.88;;
75774;SDS011;64505;51.458;7.556;2023-08-07T07:58:17;4.60;;;2.03;;
75774;SDS011;64505;51.458;7.556;2023-08-07T08:00:18;4.15;;;1.88;;
75774;SDS011;64505;51.458;7.556;2023-08-07T08:02:21;5.18;;;2.33;;
75774;SDS011;64505;51.458;7.556;2023-08-07T08:04:22;5.35;;;2.40;;
75774;SDS011;64505;51.458;7.556;2023-08-07T08:06:24;3.85;;;2.22;;
75774;SDS011;64505;51.458;7.556;2023-08-07T08:08:26;6.45;;;2.33;;
75774;SDS011;64505;51.458;7.556;2023-08-07T08:10:29;4.72;;;2.30;;
75774;SDS011;64505;51.458;7.556;2023-08-07T08:12:30;4.10;;;2.05;;
75774;SDS011;64505;51.458;7.556;2023-08-07T08:14:32;3.95;;;2.38;;
75774;SDS011;64505;51.458;7.556;2023-08-07T08:16:50;3.88;;;2.28;;
75774;SDS011;64505;51.458;7.556;2023-08-07T08:18:52;3.83;;;2.30;;
75774;SDS011;64505;51.458;7.556;2023-08-07T08:20:54;3.92;;;2.28;;
75774;SDS011;64505;51.458;7.556;2023-08-07T08:22:55;4.47;;;2.08;;
75774;SDS011;64505;51.458;7.556;2023-08-07T08:24:57;4.55;;;2.13;;
75774;SDS011;64505;51.458;7.556;2023-08-07T08:26:58;4.10;;;2.03;;
75774;SDS011;64505;51.458;7.556;2023-08-07T08:28:59;3.88;;;2.03;;
75774;SDS011;64505;51.458;7.556;2023-08-07T08:31:01;3.90;;;1.90;;
75774;SDS011;64505;51.458;7.556;2023-08-07T08:33:03;3.72;;;2.10;;
75774;SDS011;64505;51.458;7.556;2023-08-07T08:35:06;5.45;;;2.08;;
75774;SDS011;64505;51.458;7.556;2023-08-07T08:37:08;4.07;;;1.88;;
75774;SDS011;64505;51.458;7.556;2023-08-07T08:39:11;5.50;;;2.40;;
75774;SDS011;64505;51.458;7.556;2023-08-07T08:41:13;4.53;;;2.05;;
75774;SDS011;64505;51.458;7.556;2023-08-07T08:43:14;4.78;;;1.77;;
75774;SDS011;64505;51.458;7.556;2023-08-07T08:45:16;8.30;;;2.33;;
75774;SDS011;64505;51.458;7.556;2023-08-07T08:47:20;5.43;;;1.85;;
75774;SDS011;64505;51.458;7.556;2023-08-07T08:49:25;5.45;;;1.60;;
75774;SDS011;64505;51.458;7.556;2023-08-07T08:51:31;5.45;;;1.92;;
75774;SDS011;64505;51.458;7.556;2023-08-07T08:53:33;4.00;;;1.50;;
75774;SDS011;64505;51.458;7.556;2023-08-07T08:55:35;3.63;;;1.08;;
75774;SDS011;64505;51.458;7.556;2023-08-07T08:57:38;4.25;;;1.40;;
75774;SDS011;64505;51.458;7.556;2023-08-07T08:59:41;5.28;;;1.40;;
75774;SDS011;64505;51.458;7.556;2023-08-07T09:01:43;6.15;;;1.63;;
75774;SDS011;64505;51.458;7.556;2023-08-07T09:03:46;5.97;;;1.50;;
75774;SDS011;64505;51.458;7.556;2023-08-07T09:05:48;6.03;;;1.65;;
75774;SDS011;64505;51.458;7.556;2023-08-07T09:07:51;5.47;;;1.42;;
75774;SDS011;64505;51.458;7.556;2023-08-07T09:09:52;3.90;;;1.55;;
75774;SDS011;64505;51.458;7.556;2023-08-07T09:11:54;3.92;;;1.40;;
75774;SDS011;64505;51.458;7.556;2023-08-07T09:13:58;5.47;;;1.15;;
75774;SDS011;64505;51.458;7.556;2023-08-07T09:16:01;4.82;;;1.13;;
75774;SDS011;64505;51.458;7.556;2023-08-07T09:18:03;3.00;;;1.50;;
75774;SDS011;64505;51.458;7.556;2023-08-07T09:20:09;5.43;;;1.30;;
75774;SDS011;64505;51.458;7.556;2023-08-07T09:22:14;4.53;;;1.30;;
75774;SDS011;64505;51.458;7.556;2023-08-07T09:24:16;3.95;;;1.38;;
75774;SDS011;64505;51.458;7.556;2023-08-07T09:28:28;10.18;;;1.45;;
75774;SDS011;64505;51.458;7.556;2023-08-07T09:30:34;5.20;;;1.42;;
75774;SDS011;64505;51.458;7.556;2023-08-07T09:32:38;6.80;;;1.83;;
75774;SDS011;64505;51.458;7.556;2023-08-07T09:34:40;7.13;;;1.75;;
75774;SDS011;64505;51.458;7.556;2023-08-07T09:36:43;7.95;;;2.03;;
75774;SDS011;64505;51.458;7.556;2023-08-07T09:38:49;8.10;;;2.38;;
75774;SDS011;64505;51.458;7.556;2023-08-07T09:40:51;9.68;;;2.20;;
75774;SDS011;64505;51.458;7.556;2023-08-07T09:42:53;7.07;;;2.50;;
75774;SDS011;64505;51.458;7.556;2023-08-07T09:44:55;9.27;;;2.30;;
75774;SDS011;64505;51.458;7.556;2023-08-07T09:46:56;9.18;;;2.33;;
75774;SDS011;64505;51.458;7.556;2023-08-07T09:48:58;9.60;;;2.22;;
75774;SDS011;64505;51.458;7.556;2023-08-07T09:51:00;8.48;;;2.42;;
75774;SDS011;64505;51.458;7.556;2023-08-07T09:53:03;10.75;;;2.72;;
75774;SDS011;64505;51.458;7.556;2023-08-07T09:55:05;10.80;;;2.50;;
75774;SDS011;64505;51.458;7.556;2023-08-07T09:57:06;9.27;;;2.67;;
75774;SDS011;64505;51.458;7.556;2023-08-07T09:59:08;7.18;;;2.63;;
75774;SDS011;64505;51.458;7.556;2023-08-07T10:01:09;9.45;;;2.90;;
75774;SDS011;64505;51.458;7.556;2023-08-07T10:03:11;8.07;;;2.70;;
75774;SDS011;64505;51.458;7.556;2023-08-07T10:05:14;8.65;;;2.47;;
75774;SDS011;64505;51.458;7.556;2023-08-07T10:07:16;6.93;;;2.53;;
75774;SDS011;64505;51.458;7.556;2023-08-07T10:09:17;9.23;;;2.03;;
75774;SDS011;64505;51.458;7.556;2023-08-07T10:11:19;11.23;;;2.63;;
75774;SDS011;64505;51.458;7.556;2023-08-07T10:13:21;8.70;;;2.30;;
75774;SDS011;64505;51.458;7.556;2023-08-07T10:15:38;10.02;;;2.70;;
75774;SDS011;64505;51.458;7.556;2023-08-07T10:17:41;5.60;;;2.25;;
75774;SDS011;64505;51.458;7.556;2023-08-07T10:19:44;8.75;;;2.97;;
75774;SDS011;64505;51.458;7.556;2023-08-07T10:21:46;9.45;;;3.03;;
75774;SDS011;64505;51.458;7.556;2023-08-07T10:23:47;9.23;;;2.40;;
75774;SDS011;64505;51.458;7.556;2023-08-07T10:25:55;10.05;;;2.20;;
75774;SDS011;64505;51.458;7.556;2023-08-07T10:27:58;7.95;;;2.22;;
75774;SDS011;64505;51.458;7.556;2023-08-07T10:30:02;8.55;;;2.40;;
75774;SDS011;64505;51.458;7.556;2023-08-07T10:32:07;9.30;;;2.35;;
75774;SDS011;64505;51.458;7.556;2023-08-07T10:34:09;10.52;;;2.38;;
75774;SDS011;64505;51.458;7.556;2023-08-07T10:36:11;8.15;;;2.47;;
75774;SDS011;64505;51.458;7.556;2023-08-07T10:38:13;9.07;;;2.38;;
75774;SDS011;64505;51.458;7.556;2023-08-07T10:40:16;6.85;;;1.67;;
75774;SDS011;64505;51.458;7.556;2023-08-07T10:42:18;5.78;;;2.28;;
75774;SDS011;64505;51.458;7.556;2023-08-07T10:44:20;7.07;;;1.75;;
75774;SDS011;64505;51.458;7.556;2023-08-07T10:46:23;7.45;;;1.60;;
75774;SDS011;64505;51.458;7.556;2023-08-07T10:48:26;6.93;;;2.03;;
75774;SDS011;64505;51.458;7.556;2023-08-07T10:50:34;8.35;;;2.30;;
75774;SDS011;64505;51.458;7.556;2023-08-07T10:52:38;6.95;;;2.33;;
75774;SDS011;64505;51.458;7.556;2023-08-07T10:54:44;7.28;;;1.75;;
75774;SDS011;64505;51.458;7.556;2023-08-07T10:56:52;8.95;;;2.40;;
75774;SDS011;64505;51.458;7.556;2023-08-07T10:58:56;6.95;;;2.15;;
75774;SDS011;64505;51.458;7.556;2023-08-07T11:03:28;6.55;;;2.13;;
75774;SDS011;64505;51.458;7.556;2023-08-07T11:05:30;6.60;;;1.90;;
75774;SDS011;64505;51.458;7.556;2023-08-07T11:07:32;8.32;;;2.25;;
75774;SDS011;64505;51.458;7.556;2023-08-07T11:09:33;6.88;;;2.00;;
75774;SDS011;64505;51.458;7.556;2023-08-07T11:11:56;8.15;;;2.20;;
75774;SDS011;64505;51.458;7.556;2023-08-07T11:13:56;9.27;;;2.42;;
75774;SDS011;64505;51.458;7.556;2023-08-07T11:15:58;6.10;;;1.88;;
75774;SDS011;64505;51.458;7.556;2023-08-07T11:18:01;9.85;;;1.88;;
75774;SDS011;64505;51.458;7.556;2023-08-07T11:20:02;8.93;;;2.50;;
75774;SDS011;64505;51.458;7.556;2023-08-07T11:22:05;11.98;;;2.42;;
75774;SDS011;64505;51.458;7.556;2023-08-07T11:24:07;7.95;;;2.17;;
75774;SDS011;64505;51.458;7.556;2023-08-07T11:26:08;8.60;;;1.95;;
75774;SDS011;64505;51.458;7.556;2023-08-07T11:28:10;7.90;;;1.88;;
75774;SDS011;64505;51.458;7.556;2023-08-07T11:30:12;7.95;;;2.30;;
75774;SDS011;64505;51.458;7.556;2023-08-07T11:32:13;7.32;;;1.80;;
75774;SDS011;64505;51.458;7.556;2023-08-07T11:34:16;8.75;;;1.88;;
75774;SDS011;64505;51.458;7.556;2023-08-07T11:36:19;9.75;;;2.00;;
75774;SDS011;64505;51.458;7.556;2023-08-07T11:38:30;8.20;;;2.40;;
75774;SDS011;64505;51.458;7.556;2023-08-07T11:40:34;8.70;;;1.80;;
75774;SDS011;64505;51.458;7.556;2023-08-07T11:42:35;8.65;;;1.88;;
75774;SDS011;64505;51.458;7.556;2023-08-07T11:44:37;7.10;;;1.95;;
75774;SDS011;64505;51.458;7.556;2023-08-07T11:46:38;9.77;;;2.00;;
75774;SDS011;64505;51.458;7.556;2023-08-07T11:48:40;6.03;;;1.77;;
75774;SDS011;64505;51.458;7.556;2023-08-07T11:50:43;8.52;;;1.98;;
75774;SDS011;64505;51.458;7.556;2023-08-07T11:52:44;7.88;;;2.25;;
75774;SDS011;64505;51.458;7.556;2023-08-07T11:54:46;9.60;;;2.33;;
75774;SDS011;64505;51.458;7.556;2023-08-07T11:56:49;8.50;;;2.40;;
75774;SDS011;64505;51.458;7.556;2023-08-07T11:58:51;6.32;;;2.25;;
75774;SDS011;64505;51.458;7.556;2023-08-07T12:00:54;11.73;;;2.53;;
75774;SDS011;64505;51.458;7.556;2023-08-07T12:02:56;9.07;;;2.45;;
75774;SDS011;64505;51.458;7.556;2023-08-07T12:04:58;9.00;;;2.40;;
75774;SDS011;64505;51.458;7.556;2023-08-07T12:07:00;8.55;;;2.10;;
75774;SDS011;64505;51.458;7.556;2023-08-07T12:09:02;6.65;;;1.92;;
75774;SDS011;64505;51.458;7.556;2023-08-07T12:11:04;8.07;;;1.80;;
75774;SDS011;64505;51.458;7.556;2023-08-07T12:13:11;5.25;;;2.08;;
75774;SDS011;64505;51.458;7.556;2023-08-07T12:15:13;5.35;;;1.65;;
75774;SDS011;64505;51.458;7.556;2023-08-07T12:17:19;9.60;;;1.90;;
75774;SDS011;64505;51.458;7.556;2023-08-07T12:19:22;8.30;;;1.95;;
75774;SDS011;64505;51.458;7.556;2023-08-07T12:21:23;4.45;;;1.58;;